createdAt,value
2019-06-27T00:04:42.175Z,100248.38
2019-06-27T00:10:46.786Z,100244.84
2019-06-27T00:16:53.155Z,100250.42
2019-06-27T00:22:57.727Z,100251.66
2019-06-27T00:29:02.291Z,100248.28
2019-06-27T00:35:08.533Z,100252.51
2019-06-27T00:41:13.098Z,100265.43
2019-06-27T00:47:17.661Z,100265.86
2019-06-27T00:53:22.223Z,100264.94
2019-06-27T00:59:26.772Z,100269.66
2019-06-27T01:05:31.447Z,100279.38
2019-06-27T01:11:35.998Z,100274.66
2019-06-27T01:17:40.637Z,100281.04
2019-06-27T01:23:45.294Z,100283.12
2019-06-27T01:29:50.511Z,100282.75
2019-06-27T01:35:55.066Z,100285.51
2019-06-27T01:41:59.631Z,100282.02
2019-06-27T01:48:04.268Z,100286.98
2019-06-27T01:54:08.835Z,100290.98
2019-06-27T02:00:14.004Z,100290.24
2019-06-27T02:06:18.562Z,100290.24
2019-06-27T02:12:23.188Z,100291.13
2019-06-27T02:18:27.764Z,100293.16
2019-06-27T02:24:32.337Z,100297.23
2019-06-27T02:30:44.909Z,100293.04
2019-06-27T02:36:49.470Z,100291.36
2019-06-27T02:42:54.203Z,100300.14
2019-06-27T02:48:58.795Z,100301.44
2019-06-27T02:55:03.418Z,100305.89
2019-06-27T03:01:07.975Z,100309.64
2019-06-27T03:07:12.533Z,100310.92
2019-06-27T03:13:17.179Z,100310.14
2019-06-27T03:19:23.279Z,100311.15
2019-06-27T03:25:27.840Z,100312.85
2019-06-27T03:31:32.404Z,100313.16
2019-06-27T03:37:36.958Z,100315.14
2019-06-27T03:43:41.540Z,100315.59
2019-06-27T03:49:46.096Z,100316.65
2019-06-27T03:55:51.383Z,100314.41
2019-06-27T04:01:56.019Z,100320.94
2019-06-27T04:08:00.582Z,100312.85
2019-06-27T04:14:05.230Z,100319.23
2019-06-27T04:20:10.238Z,100322.76
2019-06-27T04:26:14.799Z,100322.45
2019-06-27T04:32:19.706Z,100319.08
2019-06-27T04:38:24.272Z,100326.12
2019-06-27T04:44:29.006Z,100333.84
2019-06-27T04:50:33.563Z,100336.69
2019-06-27T04:56:38.145Z,100343.69
2019-06-27T05:02:42.711Z,100355.64
2019-06-27T05:08:47.288Z,100360.45
2019-06-27T05:14:51.897Z,100362.81
2019-06-27T05:20:56.496Z,100370.63
2019-06-27T05:27:01.073Z,100378.97
2019-06-27T05:33:05.715Z,100372.08
2019-06-27T05:39:10.273Z,100379.05
2019-06-27T05:45:15.066Z,100385.08
2019-06-27T05:51:19.720Z,100382.56
2019-06-27T05:57:24.267Z,100382.08
2019-06-27T06:03:28.832Z,100386.87
2019-06-27T06:09:33.399Z,100388.41
2019-06-27T06:15:37.973Z,100393.53
2019-06-27T06:21:42.539Z,100390.75
2019-06-27T06:27:47.103Z,100397.22
2019-06-27T06:33:51.679Z,100399.76
2019-06-27T06:39:56.240Z,100394.92
2019-06-27T06:46:00.825Z,100402.55
2019-06-27T06:52:05.545Z,100396.27
2019-06-27T06:58:10.101Z,100402.72
2019-06-27T07:04:14.663Z,100407.16
2019-06-27T07:10:20.036Z,100400.60
2019-06-27T07:16:24.597Z,100410.64
2019-06-27T07:22:29.159Z,100407.14
2019-06-27T07:28:33.734Z,100397.70
2019-06-27T07:34:38.279Z,100402.75
2019-06-27T07:40:42.847Z,100406.80
2019-06-27T07:46:47.444Z,100410.56
2019-06-27T07:52:52.028Z,100416.50
2019-06-27T07:58:56.599Z,100412.34
2019-06-27T08:05:01.186Z,100405.88
2019-06-27T08:11:05.811Z,100410.69
2019-06-27T08:17:10.574Z,100406.75
2019-06-27T08:23:15.278Z,100403.72
2019-06-27T08:29:19.908Z,100404.16
2019-06-27T08:35:24.540Z,100398.64
2019-06-27T08:41:29.919Z,100404.28
2019-06-27T08:47:34.524Z,100399.59
2019-06-27T08:53:39.093Z,100399.45
2019-06-27T08:59:43.641Z,100398.62
2019-06-27T09:05:48.235Z,100397.92
2019-06-27T09:11:52.871Z,100397.84
2019-06-27T09:17:57.456Z,100392.12
2019-06-27T09:24:02.024Z,100381.52
2019-06-27T09:30:09.024Z,100380.22
2019-06-27T09:36:13.579Z,100382.54
2019-06-27T09:42:18.141Z,100378.16
2019-06-27T09:48:22.723Z,100369.39
2019-06-27T09:54:27.273Z,100380.73
2019-06-27T10:00:31.991Z,100379.87
2019-06-27T10:06:36.632Z,100381.52
2019-06-27T10:12:43.152Z,100376.41
2019-06-27T10:18:47.713Z,100376.04
2019-06-27T10:24:52.317Z,100370.98
2019-06-27T10:30:57.092Z,100369.53
2019-06-27T10:37:01.650Z,100369.76
2019-06-27T10:43:06.288Z,100367.31
2019-06-27T10:49:10.856Z,100368.97
2019-06-27T10:55:15.560Z,100360.63
2019-06-27T11:01:20.213Z,100366.39
2019-06-27T11:07:24.773Z,100369.05
2019-06-27T11:13:29.341Z,100362.16
2019-06-27T11:19:33.973Z,100353.70
2019-06-27T11:25:38.530Z,100350.08
2019-06-27T11:31:43.091Z,100347.41
2019-06-27T11:37:47.648Z,100350.09
2019-06-27T11:43:52.214Z,100337.38
2019-06-27T11:49:56.770Z,100336.09
2019-06-27T11:56:01.403Z,100333.73
2019-06-27T12:02:05.985Z,100336.48
2019-06-27T12:08:11.109Z,100335.03
2019-06-27T12:14:15.802Z,100333.48
2019-06-27T12:20:20.671Z,100330.08
2019-06-27T12:26:25.235Z,100330.75
2019-06-27T12:32:29.798Z,100322.86
2019-06-27T12:38:34.377Z,100312.52
2019-06-27T12:44:38.994Z,100318.06
2019-06-27T12:50:43.554Z,100318.50
2019-06-27T12:56:48.720Z,100315.22
2019-06-27T13:02:53.282Z,100317.92
2019-06-27T13:08:57.841Z,100308.91
2019-06-27T13:15:02.480Z,100298.82
2019-06-27T13:21:07.200Z,100301.66
2019-06-27T13:27:11.776Z,100299.95
2019-06-27T13:33:16.525Z,100286.61
2019-06-27T13:39:21.160Z,100286.50
2019-06-27T13:45:26.756Z,100280.38
2019-06-27T13:51:31.433Z,100267.45
2019-06-27T13:57:36.067Z,100262.83
2019-06-27T14:03:49.261Z,100265.09
2019-06-27T14:09:53.674Z,100267.83
2019-06-27T14:15:53.257Z,100246.23
2019-06-27T14:21:58.985Z,100248.23
2019-06-27T14:28:03.687Z,100238.42
2019-06-27T14:34:08.322Z,100240.99
2019-06-27T14:40:13.803Z,100228.55
2019-06-27T14:46:18.449Z,100219.15
2019-06-27T14:52:23.010Z,100221.67
2019-06-27T14:58:27.571Z,100220.98
2019-06-27T15:04:32.128Z,100213.22
2019-06-27T15:10:36.766Z,100207.45
2019-06-27T15:16:41.312Z,100208.22
2019-06-27T15:22:45.885Z,100207.59
2019-06-27T15:28:50.537Z,100197.19
2019-06-27T15:34:55.121Z,100201.82
2019-06-27T15:40:59.678Z,100197.34
2019-06-27T15:47:04.247Z,100193.91
2019-06-27T15:53:08.872Z,100188.85
2019-06-27T15:59:13.438Z,100188.03
2019-06-27T16:05:18.645Z,100183.52
2019-06-27T16:11:23.250Z,100185.17
2019-06-27T16:17:27.818Z,100173.77
2019-06-27T16:23:32.384Z,100174.12
2019-06-27T16:29:37.017Z,100169.26
2019-06-27T16:35:41.715Z,100170.80
2019-06-27T16:41:46.268Z,100168.23
2019-06-27T16:47:50.832Z,100177.74
2019-06-27T16:53:55.389Z,100171.53
2019-06-27T17:00:00.028Z,100179.91
2019-06-27T17:06:04.603Z,100189.64
2019-06-27T17:12:09.167Z,100178.88
2019-06-27T17:18:13.891Z,100181.29
2019-06-27T17:24:18.460Z,100189.53
2019-06-27T17:30:23.672Z,100180.73
2019-06-27T17:36:28.253Z,100182.75
2019-06-27T17:42:32.795Z,100177.98
2019-06-27T17:48:37.372Z,100185.61
2019-06-27T17:54:41.929Z,100185.02
2019-06-27T18:00:46.568Z,100186.66
2019-06-27T18:06:51.115Z,100183.53
2019-06-27T18:12:55.684Z,100187.14
2019-06-27T18:19:00.820Z,100196.05
2019-06-27T18:25:06.396Z,100191.19
2019-06-27T18:31:11.033Z,100191.66
2019-06-27T18:37:28.830Z,100188.19
2019-06-27T18:43:21.953Z,100183.58
2019-06-27T18:49:26.519Z,100179.76
2019-06-27T18:55:31.149Z,100175.78
2019-06-27T19:01:35.707Z,100184.30
2019-06-27T19:07:45.875Z,100178.38
2019-06-27T19:13:46.798Z,100178.11
2019-06-27T19:19:53.175Z,100190.63
2019-06-27T19:25:59.620Z,100193.20
2019-06-27T19:32:04.337Z,100204.56
2019-06-27T19:38:08.908Z,100214.00
2019-06-27T19:44:13.521Z,100219.09
2019-06-27T19:50:18.735Z,100224.73
2019-06-27T19:56:23.303Z,100221.30
2019-06-27T20:02:27.863Z,100229.95
2019-06-27T20:08:32.419Z,100236.02
2019-06-27T20:14:36.985Z,100243.67
2019-06-27T20:20:41.988Z,100242.77
2019-06-27T20:26:46.623Z,100245.45
2019-06-27T20:32:51.247Z,100244.77
2019-06-27T20:38:55.813Z,100249.53
2019-06-27T20:45:00.372Z,100250.33
2019-06-27T20:51:05.073Z,100257.64
2019-06-27T20:57:09.621Z,100260.87
2019-06-27T21:03:14.241Z,100268.20
2019-06-27T21:09:18.961Z,100264.17
2019-06-27T21:15:23.935Z,100270.66
2019-06-27T21:21:28.555Z,100282.50
2019-06-27T21:27:33.238Z,100277.80
2019-06-27T21:33:37.794Z,100289.30
2019-06-27T21:39:42.497Z,100296.80
2019-06-27T21:45:47.123Z,100298.86
2019-06-27T21:51:51.752Z,100300.44
2019-06-27T21:57:59.726Z,100305.47
2019-06-27T22:04:02.709Z,100313.11
2019-06-27T22:10:09.048Z,100315.71
2019-06-27T22:16:13.670Z,100316.48
2019-06-27T22:22:18.393Z,100314.41
2019-06-27T22:28:23.005Z,100310.98
2019-06-27T22:34:27.569Z,100304.42
2019-06-27T22:40:50.170Z,100295.38
2019-06-27T22:47:12.823Z,100291.75
2019-06-27T22:53:20.846Z,100279.67
2019-06-27T22:59:25.321Z,100279.77
2019-06-27T23:05:29.876Z,100281.94
2019-06-27T23:11:34.432Z,100287.63
2019-06-27T23:17:39.095Z,100287.08
2019-06-27T23:23:43.648Z,100277.44
2019-06-27T23:29:49.750Z,100282.67
2019-06-27T23:35:54.333Z,100279.15
2019-06-27T23:41:58.898Z,100286.08
2019-06-27T23:48:03.523Z,100289.03
2019-06-27T23:54:08.992Z,100284.11
